Tiempo atmosférico en la estación meteorológica de Motilla Del Palancar, Cuenca (830 m.)



Fecha
DESCASC
Temp. máxima en grados centígrados (hora)
DESCASC
Temp. mínima en grados centígrados (hora)
DESCASC
Temp. media en grados centígrados
DESCASC
Racha de viento máxima en m/sg (hora)
DESCASC
Velocidad máxima media en intervalos de 10 minutos(hora)
DESCASC
Precipitaciones diarias en mm
DESCASC
Precipitaciones de 00:00 a 06:00 en mm
DESCASC
Precipitaciones de 06:00 a 12:00 en mm
DESCASC
Precipitaciones de 12:00 a 18:00 en mm
DESCASC
Precipitaciones de 18:00 a 24:00 en mm
DESCASC
02-04-2020 13.4 (13:10) 4.1 (03:30) 8.7 7.78 (17:30) 4.72 (17:20) 10 0 0 1.4 8.6
01-04-2020 14 (17:20) 5 (08:30) 9.5 10 (17:40) 5.28 (16:00) 6 5.8 0.2 0 0
31-03-2020 12.1 (16:40) 1.8 (00:00) 7 10.83 (11:50) 6.11 (11:50) 21.6 5 4 0.2 12.4
30-03-2020 12.3 (14:20) 2.7 (00:00) 7.5 10.28 (21:10) 3.89 (18:50) 8.2 0 0 4 4.2
29-03-2020 16.2 (17:50) -0.2 (00:00) 8 7.78 (14:20) 4.72 (14:30) 0 0 0 0 0
28-03-2020 11.7 (16:10) -0.2 (00:00) 5.7 4.44 (13:30) 2.78 (13:50) 0 0 0 0 0
27-03-2020 4.4 (16:40) 1 (00:00) 2.7 8.33 (08:10) 3.89 (04:10) 7.4 0 4.4 2.4 0.6
26-03-2020 11.8 (14:50) 3.5 (00:00) 7.7 10.83 (13:50) 6.39 (14:30) 0 0 0 0 0
25-03-2020 12.5 (16:30) 2.9 (00:00) 7.7 8.89 (15:10) 5.28 (16:00) 5.8 0 0 0.8 5
24-03-2020 -- (--) -- (--) -- -- (--) -- (--) -- 0.4 -- 0 0
23-03-2020 11.8 (12:10) 6.5 (00:00) 9.2 12.78 (13:10) 6.39 (13:10) 9.6 2.6 0.6 6.4 0
22-03-2020 11 (14:40) 1.4 (04:40) 6.2 8.06 (20:30) 4.17 (20:20) 3.6 0 0.2 3 0.4
21-03-2020 9.8 (12:20) 4.8 (00:00) 7.3 7.22 (10:50) 3.89 (11:20) 6.4 0 0 1 5.4
20-03-2020 9.7 (12:00) 5.5 (00:00) 7.6 8.61 (13:30) 4.72 (12:10) 0 0 0 0 0
19-03-2020 12.7 (15:50) 4.9 (00:00) 8.8 9.17 (12:30) 5.28 (12:30) 0 0 0 0 0
18-03-2020 14.3 (16:30) 6.5 (00:00) 10.4 9.72 (12:50) 5.56 (13:50) 0 0 0 0 0
17-03-2020 10.8 (17:10) 4 (00:00) 7.4 10.28 (19:20) 4.44 (19:30) 7.8 0.2 0 7.6 0
16-03-2020 9.4 (04:20) 1.8 (00:00) 5.6 9.72 (08:00) 6.11 (08:00) 20.2 2 18.2 0 0
15-03-2020 18.8 (15:40) 6.8 (00:00) 12.8 12.78 (18:40) 6.94 (18:40) 15.4 0 0 0 15.4
14-03-2020 20.1 (16:20) 5.1 (00:00) 12.6 7.22 (21:00) 4.17 (21:20) 0 0 0 0 0
13-03-2020 19.2 (16:10) 6.3 (07:20) 12.8 9.44 (15:10) 5 (14:10) 0 0 0 0 0
12-03-2020 25.1 (15:40) 7.1 (00:00) 16.1 6.67 (14:00) 3.61 (14:50) 0 0 0 0 0
11-03-2020 25.9 (16:30) 4.5 (00:00) 15.2 7.22 (14:30) 4.17 (14:50) 0 0 0 0 0
10-03-2020 22.3 (16:50) 4.1 (00:00) 13.2 8.61 (14:10) 5 (11:00) 0 0 0 0 0
09-03-2020 16.3 (16:20) 1.8 (00:00) 9 12.22 (16:40) 7.5 (16:40) 0 0 0 0 0
08-03-2020 16.9 (16:30) -1.1 (-00:0) 7.9 10.28 (18:00) 5.83 (15:40) 0 0 0 0 0
07-03-2020 14.8 (16:50) -1.2 (-00:0) 6.8 12.5 (16:30) 7.22 (12:50) 0 0 0 0 0
06-03-2020 10.9 (16:20) 2.2 (00:00) 6.5 17.78 (15:00) 9.72 (15:40) 0 0 0 0 0
05-03-2020 14 (16:10) 7.2 (00:00) 10.6 17.5 (15:40) 9.72 (15:20) 0.2 0 0 0.2 0

Gráficas

Temp. máximas Temp. mínimas Temp. medias Precipitaciones Rachas de viento máximas Velocidades máximas media en intervalos de 10 minutos

Datos horarios

Fecha y hora oficial Temperatura (ºC) Velocidad del viento (km/h) Dirección del viento Racha (km/h) Dirección de racha Precipitación (mm) Presión (hPa) Tendencia (hPa) Humedad (%)
2020-04-03 23:00:00 7.6 3 Nordeste 7 Nordeste 0 -- -- 87
2020-04-03 22:00:00 8.5 0 Calma 2 Nordeste 0 -- -- 83
2020-04-03 21:00:00 10.3 3 Sudoeste 10 Sudoeste 0 -- -- 75
2020-04-03 20:00:00 13.4 9 Sudoeste 17 Sudoeste 0 -- -- 61
2020-04-03 19:00:00 14.8 10 Oeste 19 Oeste 0 -- -- 47
2020-04-03 18:00:00 15.2 10 Oeste 19 Oeste 0 -- -- 50
2020-04-03 17:00:00 15.1 9 Oeste 21 Noroeste 0 -- -- 50
2020-04-03 16:00:00 14.4 12 Sudoeste 24 Sudoeste 0 -- -- 57
2020-04-03 15:00:00 13.7 14 Sudoeste 24 Oeste 0 -- -- 62
2020-04-03 14:00:00 12.7 14 Oeste 27 Oeste 0 -- -- 61
2020-04-03 13:00:00 11.8 8 Oeste 17 Oeste 0 -- -- 66
2020-04-03 12:00:00 10 10 Oeste 15 Sudoeste 0 -- -- 72
2020-04-03 11:00:00 8.8 2 Sudoeste 5 Sur 0 -- -- 85
2020-04-03 10:00:00 6.6 2 Sudeste 5 Este 0 -- -- 99
2020-04-03 09:00:00 2.7 0 Calma 4 Nordeste 0 -- -- 99
2020-04-03 08:00:00 1.8 0 Calma 7 Norte 0 -- -- 97
2020-04-03 07:00:00 2 0 Calma 5 Este 0 -- -- 97
2020-04-03 06:00:00 2.7 0 Calma 5 Este 0 -- -- 96
2020-04-03 05:00:00 3.9 4 Norte 9 Norte 0 -- -- 97
2020-04-03 04:00:00 5.3 4 Nordeste 6 Nordeste 0 -- -- 97
2020-04-03 03:00:00 6.4 0 Calma 5 Sudoeste 0 -- -- 97
2020-04-03 02:00:00 6.2 0 Calma 4 Nordeste 0 -- -- 96
2020-04-03 01:00:00 6.9 2 Norte 5 Norte 0.2 -- -- 96
2020-04-03 00:00:00 6.6 3 Nordeste 9 Este 0 -- -- 96
2020-04-02 23:00:00 6.8 2 Este 7 Este 0 -- -- 96
2020-04-02 22:00:00 6.7 3 Este 22 Este 2 -- -- 95
2020-04-02 21:00:00 7.1 8 Este 23 Nordeste 3 -- -- 94
2020-04-02 20:00:00 8.1 8 Noroeste 21 Noroeste 3.6 -- -- 89
2020-04-02 19:00:00 10.9 7 Oeste 21 Sudoeste 0 -- -- 73
2020-04-02 18:00:00 10.5 13 Sudoeste 28 Oeste 0 -- -- 77
2020-04-02 17:00:00 11 14 Oeste 25 Oeste 0 -- -- 80
2020-04-02 16:00:00 8.8 11 Oeste 23 Oeste 1.4 -- -- 85
2020-04-02 15:00:00 12.8 8 Sur 16 Este 0 -- -- 65
2020-04-02 14:00:00 12 6 Nordeste 21 Nordeste 0 -- -- 66
2020-04-02 13:00:00 13.1 6 Este 17 Este 0 -- -- 63
2020-04-02 12:00:00 10.5 4 Nordeste 11 Sudeste 0 -- -- 76
2020-04-02 11:00:00 8.1 2 Norte 13 Nordeste 0 -- -- 85
2020-04-02 10:00:00 6.1 8 Nordeste 14 Nordeste 0 -- -- 93
2020-04-02 09:00:00 4.8 4 Norte 11 Norte 0 -- -- 98
2020-04-02 08:00:00 4.7 2 Nordeste 10 Norte 0 -- -- 97
2020-04-02 07:00:00 4.9 0 Calma 8 Oeste 0 -- -- 96
2020-04-02 06:00:00 5.6 2 Nordeste 4 Este 0 -- -- 97
2020-04-02 05:00:00 5.4 0 Calma 4 Sudoeste 0 -- -- 97
2020-04-02 04:00:00 4.9 0 Calma 10 Norte 0 -- -- 96
2020-04-02 03:00:00 4.4 0 Calma 5 Nordeste 0 -- -- 92
2020-04-02 02:00:00 5.1 3 Nordeste 10 Este 0 -- -- 89
2020-04-02 01:00:00 5.9 2 Norte 10 Norte 0 -- -- 87
2020-04-02 00:00:00 6.3 3 Norte 9 Sudoeste 0 -- -- 88
2020-04-01 23:00:00 7.3 2 Norte 7 Norte 0 -- -- 81
2020-04-01 22:00:00 7.3 0 Calma 6 Oeste 0 -- -- 81
2020-04-01 21:00:00 9.6 3 Oeste 14 Oeste 0 -- -- 71
2020-04-01 20:00:00 12.1 9 Oeste 27 Oeste 0 -- -- 56
2020-04-01 19:00:00 13.4 14 Oeste 25 Oeste 0 -- -- 52
2020-04-01 18:00:00 13.3 14 Oeste 36 Noroeste 0 -- -- 57
2020-04-01 17:00:00 13.9 14 Oeste 29 Oeste 0 -- -- 57
2020-04-01 16:00:00 13.7 19 Oeste 30 Oeste 0 -- -- 59
2020-04-01 15:00:00 12.8 15 Oeste 31 Oeste 0 -- -- 64
2020-04-01 14:00:00 12.4 15 Oeste 25 Sudoeste 0 -- -- 69
2020-04-01 13:00:00 11.2 11 Sudoeste 20 Sur 0 -- -- 79
2020-04-01 12:00:00 10.1 7 Oeste 14 Sudoeste 0.2 -- -- 84
2020-04-01 11:00:00 9.4 2 Sur 7 Sur 0 -- -- 99
2020-04-01 10:00:00 7.2 3 Nordeste 10 Sudoeste 0 -- -- 100
2020-04-01 09:00:00 6.2 6 Sudoeste 10 Sudoeste 0 -- -- 100
2020-04-01 08:00:00 6.1 2 Nordeste 9 Este 0 -- -- 99
2020-04-01 07:00:00 6.9 0 Calma 9 Sudeste 0 -- -- 100
2020-04-01 06:00:00 7.3 5 Sur 10 Sudeste 0 -- -- 100
2020-04-01 05:00:00 7.4 5 Sudeste 15 Sudeste 0 -- -- 100
2020-04-01 04:00:00 7.5 10 Sudeste 20 Sudeste 0 -- -- 99
2020-04-01 03:00:00 7.6 9 Sudeste 20 Este 1.2 -- -- 99
2020-04-01 02:00:00 7.6 6 Sudeste 22 Este 1.2 -- -- 99
2020-04-01 01:00:00 7.5 6 Este 21 Este 3.4 -- -- 99
2020-04-01 00:00:00 7.7 8 Este 26 Este 1.6 -- -- 98
2020-03-31 23:00:00 7.8 8 Este 21 Nordeste 0 -- -- 98
2020-03-31 22:00:00 8.1 7 Este 25 Este 3.2 -- -- 98
2020-03-31 21:00:00 8.6 8 Este 27 Este 6 -- -- 96
2020-03-31 20:00:00 9.4 14 Este 30 Este 1.4 -- -- 92
2020-03-31 19:00:00 10.4 12 Este 30 Este 0.2 -- -- 88
2020-03-31 18:00:00 11.4 13 Este 28 Este 0.2 -- -- 87
2020-03-31 17:00:00 11.6 12 Este 27 Este 0 -- -- 84
2020-03-31 16:00:00 10.7 16 Este 28 Este 0 -- -- 89
2020-03-31 15:00:00 10.6 15 Sudeste 33 Este 0 -- -- 89
2020-03-31 14:00:00 9.5 15 Sudeste 35 Este 0 -- -- 96
2020-03-31 13:00:00 7.2 19 Este 37 Sudeste 0 -- -- 100
2020-03-31 12:00:00 6.2 20 Este 39 Este 0 -- -- 100
2020-03-31 11:00:00 5.1 16 Este 37 Este 0 -- -- 100
2020-03-31 10:00:00 4.3 16 Este 32 Sudeste 0 -- -- 99
2020-03-31 09:00:00 3.8 6 Este 22 Este 0.8 -- -- 99
2020-03-31 08:00:00 3.2 8 Este 22 Este 1.8 -- -- 99
2020-03-31 07:00:00 2.8 8 Este 27 Nordeste 1.4 -- -- 99
2020-03-31 06:00:00 2.5 9 Este 24 Este 0.4 -- -- 99
2020-03-31 05:00:00 2.3 9 Este 22 Este 0.4 -- -- 98
2020-03-31 04:00:00 2.5 8 Este 26 Este 0.6 -- -- 98
2020-03-31 03:00:00 2 7 Este 21 Este 0 -- -- 98
2020-03-31 02:00:00 1.8 7 Este 22 Este 1.6 -- -- 97
2020-03-31 01:00:00 2.6 6 Este 24 Este 2 -- -- 97
2020-03-31 00:00:00 2.7 13 Este 29 Nordeste 2.4 -- -- 97
2020-03-30 23:00:00 3.1 13 Este 28 Este 1 -- -- 96
2020-03-30 22:00:00 3.3 11 Este 37 Nordeste 0.2 -- -- 95
2020-03-30 21:00:00 3.8 14 Este 30 Nordeste 0.2 -- -- 95
2020-03-30 20:00:00 4.3 8 Este 27 Nordeste 0.2 -- -- 95
2020-03-30 19:00:00 4.9 12 Este 28 Nordeste 0.2 -- -- 92
2020-03-30 18:00:00 6.7 11 Este 29 Nordeste 0 -- -- 93
2020-03-30 17:00:00 7 9 Este 25 Este 0.6 -- -- 92
2020-03-30 16:00:00 8.1 8 Este 19 Sudeste 3.2 -- -- 90
2020-03-30 15:00:00 10 10 Este 21 Este 0.2 -- -- 83
2020-03-30 14:00:00 12 7 Este 19 Este 0 -- -- 69
2020-03-30 13:00:00 11 9 Sudeste 20 Este 0 -- -- 73
2020-03-30 12:00:00 9.4 7 Sudeste 17 Este 0 -- -- 75
2020-03-30 11:00:00 8.6 7 Este 16 Nordeste 0 -- -- 72
2020-03-30 10:00:00 6.8 6 Nordeste 12 Nordeste 0 -- -- 82
2020-03-30 09:00:00 5.7 5 Nordeste 12 Nordeste 0 -- -- 87
2020-03-30 08:00:00 5 0 Calma 6 Oeste 0 -- -- 90
2020-03-30 07:00:00 5.1 0 Calma 6 Nordeste 0 -- -- 88
2020-03-30 06:00:00 5.2 2 Nordeste 4 Este 0 -- -- 89
2020-03-30 05:00:00 6.7 0 Calma 6 Nordeste 0 -- -- 84
2020-03-30 04:00:00 6.8 3 Nordeste 5 Nordeste 0 -- -- 85
2020-03-30 03:00:00 6.9 0 Calma 8 Nordeste 0 -- -- 81
2020-03-30 02:00:00 6.8 4 Nordeste 15 Nordeste 0 -- -- 81
2020-03-30 01:00:00 6.2 0 Calma 7 Sudoeste 0 -- -- 86
2020-03-30 00:00:00 6.8 0 Calma 5 Este 0 -- -- 84
2020-03-29 23:00:00 7.1 0 Calma 4 Sudoeste 0 -- -- 82
2020-03-29 22:00:00 8.6 0 Calma 8 Oeste 0 -- -- 75
2020-03-29 21:00:00 10.4 4 Oeste 14 Oeste 0 -- -- 68
2020-03-29 20:00:00 13.3 10 Oeste 22 Oeste 0 -- -- 56
2020-03-29 19:00:00 15.7 12 Oeste 23 Oeste 0 -- -- 43
2020-03-29 18:00:00 16.1 14 Oeste 25 Oeste 0 -- -- 46
2020-03-29 17:00:00 16 14 Oeste 25 Sudoeste 0 -- -- 48
2020-03-29 16:00:00 15.5 14 Oeste 26 Oeste 0 -- -- 52
2020-03-29 15:00:00 14.8 15 Oeste 28 Oeste 0 -- -- 55
2020-03-29 14:00:00 14.4 13 Oeste 24 Oeste 0 -- -- 61
2020-03-29 13:00:00 13.2 14 Oeste 24 Oeste 0 -- -- 63
2020-03-29 12:00:00 12.2 13 Oeste 23 Noroeste 0 -- -- 70
2020-03-29 11:00:00 10.7 10 Noroeste 17 Noroeste 0 -- -- 64
2020-03-29 10:00:00 6.9 3 Nordeste 10 Nordeste 0 -- -- 88
2020-03-29 09:00:00 0.8 0 Calma 6 Nordeste 0 -- -- 98
2020-03-29 08:00:00 0 0 Calma 4 Nordeste 0 -- -- 95
2020-03-29 07:00:00 0.3 0 Calma 6 Nordeste 0 -- -- 94
2020-03-29 06:00:00 0.9 3 Nordeste 6 Norte 0 -- -- 95
2020-03-29 05:00:00 1.2 3 Nordeste 6 Norte 0 -- -- 94
2020-03-29 03:00:00 2 4 Nordeste 6 Nordeste 0 -- -- 93
2020-03-29 01:00:00 2 4 Nordeste 8 Nordeste 0 -- -- 92
2020-03-29 00:00:00 2.8 3 Nordeste 6 Nordeste 0 -- -- 91
2020-03-28 23:00:00 3.8 2 Nordeste 6 Nordeste 0 -- -- 89
2020-03-28 22:00:00 4.9 5 Nordeste 8 Nordeste 0 -- -- 90
2020-03-28 21:00:00 6 0 Calma 6 Noroeste 0 -- -- 87
2020-03-28 20:00:00 7.8 0 Calma 5 Oeste 0 -- -- 80
2020-03-28 19:00:00 10.5 3 Oeste 6 Sudoeste 0 -- -- 67
2020-03-28 18:00:00 10.4 5 Sudoeste 9 Sudoeste 0 -- -- 70
2020-03-28 17:00:00 10.9 4 Sudoeste 13 Sudoeste 0 -- -- 61
2020-03-28 16:00:00 11.3 5 Sudoeste 12 Sur 0 -- -- 65
2020-03-28 15:00:00 10.9 2 Sudoeste 13 Sudeste 0 -- -- 62
2020-03-28 14:00:00 10.1 7 Sudeste 16 Sudeste 0 -- -- 65
2020-03-28 13:00:00 9.5 7 Sudeste 13 Sudeste 0 -- -- 67
2020-03-28 12:00:00 9.4 3 Este 14 Este 0 -- -- 64
2020-03-28 11:00:00 8.2 3 Este 9 Nordeste 0 -- -- 59
2020-03-28 10:00:00 5.4 4 Nordeste 10 Nordeste 0 -- -- 72
2020-03-28 09:00:00 3.3 8 Nordeste 13 Nordeste 0 -- -- 78
2020-03-28 08:00:00 0.5 4 Nordeste 9 Nordeste 0 -- -- 87
2020-03-28 07:00:00 -0.2 3 Nordeste 8 Nordeste 0 -- -- 93
2020-03-28 06:00:00 0 2 Nordeste 6 Nordeste 0 -- -- 95
2020-03-28 05:00:00 0.2 0 Calma 5 Este 0 -- -- 92
2020-03-28 04:00:00 2.2 3 Nordeste 13 Nordeste 0 -- -- 91
2020-03-28 03:00:00 3.1 3 Nordeste 9 Norte 0 -- -- 94
2020-03-28 02:00:00 3.3 2 Este 6 Nordeste 0 -- -- 95
2020-03-28 01:00:00 3.4 5 Nordeste 11 Nordeste 0 -- -- 94
2020-03-28 00:00:00 3.4 7 Este 14 Nordeste 0 -- -- 94
2020-03-27 23:00:00 3.3 8 Nordeste 14 Nordeste 0 -- -- 93
2020-03-27 22:00:00 3.2 4 Este 18 Este 0 -- -- 94
2020-03-27 21:00:00 2.9 8 Este 24 Nordeste 0.2 -- -- 94
2020-03-27 20:00:00 2.9 10 Este 30 Nordeste 0.2 -- -- 93
2020-03-27 19:00:00 3.7 8 Este 25 Este 0.2 -- -- 94
2020-03-27 18:00:00 4.1 8 Este 22 Este 0.4 -- -- 95
2020-03-27 17:00:00 4.3 8 Este 26 Sudeste 0.4 -- -- 95
2020-03-27 16:00:00 4 8 Este 27 Este 0.4 -- -- 96
2020-03-27 15:00:00 3.7 9 Este 26 Nordeste 0.2 -- -- 96
2020-03-27 14:00:00 3.4 9 Este 26 Nordeste 0.6 -- -- 97
2020-03-27 13:00:00 2.5 7 Este 19 Nordeste 0.4 -- -- 98
2020-03-27 12:00:00 1.5 10 Nordeste 17 Este 1.8 -- -- 97
2020-03-27 11:00:00 1 5 Nordeste 27 Este 1.6 -- -- 96
2020-03-27 10:00:00 2.2 9 Este 23 Este 1 -- -- 93
2020-03-27 09:00:00 2.6 10 Este 30 Este 0 -- -- 92
2020-03-27 08:00:00 2.5 10 Este 27 Este 0 -- -- 89
2020-03-27 07:00:00 2.6 8 Este 28 Este 0 -- -- 88
2020-03-27 06:00:00 2.8 6 Este 25 Este 0 -- -- 91
2020-03-27 05:00:00 2.8 10 Este 28 Sudeste 0 -- -- 92
2020-03-27 04:00:00 3.3 12 Este 26 Este 0 -- -- 92
2020-03-27 03:00:00 3.3 8 Este 20 Sudeste 0 -- -- 91
2020-03-27 02:00:00 3.5 9 Este 23 Este 0 -- -- 91
2020-03-27 01:00:00 3.3 12 Sudeste 23 Este 0 -- -- 92
2020-03-27 00:00:00 3.9 14 Este 27 Este 0 -- -- 91
2020-03-26 23:00:00 4 8 Este 21 Este 0 -- -- 84
2020-03-26 22:00:00 5.4 8 Este 24 Este 0 -- -- 78
2020-03-26 21:00:00 6 2 Este 11 Norte 0 -- -- 69
2020-03-26 20:00:00 8.9 6 Norte 17 Norte 0 -- -- 53
2020-03-26 19:00:00 10.9 8 Norte 22 Noroeste 0 -- -- 48
2020-03-26 18:00:00 11.3 9 Norte 26 Noroeste 0 -- -- 45
2020-03-26 17:00:00 10.7 16 Noroeste 31 Noroeste 0 -- -- 46
2020-03-26 16:00:00 10.7 19 Norte 37 Noroeste 0 -- -- 42
2020-03-26 15:00:00 11.5 18 Noroeste 36 Noroeste 0 -- -- 44
2020-03-26 14:00:00 11 22 Norte 39 Noroeste 0 -- -- 45
2020-03-26 13:00:00 10.6 17 Noroeste 35 Oeste 0 -- -- 52
2020-03-26 12:00:00 9.8 20 Noroeste 32 Noroeste 0 -- -- 53
2020-03-26 11:00:00 8.7 9 Noroeste 22 Noroeste 0 -- -- 62
2020-03-26 10:00:00 7.6 13 Noroeste 22 Noroeste 0 -- -- 77
2020-03-26 09:00:00 6.4 10 Noroeste 22 Noroeste 0 -- -- 90
2020-03-26 08:00:00 4.8 7 Noroeste 12 Noroeste 0 -- -- 98
2020-03-26 07:00:00 4.6 5 Oeste 10 Noroeste 0 -- -- 97
2020-03-26 06:00:00 4.9 5 Oeste 10 Oeste 0 -- -- 98
2020-03-26 05:00:00 5 0 Calma 5 Sudoeste 0 -- -- 98
2020-03-26 04:00:00 5 3 Sur 8 Sur 0 -- -- 99
2020-03-26 03:00:00 5.1 4 Sur 9 Sudeste 0 -- -- 99
2020-03-26 02:00:00 5.1 5 Sudeste 13 Sudeste 0 -- -- 99
2020-03-26 01:00:00 5.3 2 Este 11 Este 0 -- -- 99
2020-03-26 00:00:00 5.1 6 Sur 19 Sur 0 -- -- 99
2020-03-25 23:00:00 5.1 7 Sudeste 22 Sur 0.2 -- -- 98
2020-03-25 22:00:00 5.6 6 Este 18 Este 0.4 -- -- 97
2020-03-25 21:00:00 5.9 7 Este 15 Este 2 -- -- 96
2020-03-25 20:00:00 6.3 5 Este 15 Este 1 -- -- 95
2020-03-25 19:00:00 7 3 Sur 12 Este 1.4 -- -- 92
2020-03-25 18:00:00 7.5 9 Nordeste 24 Este 0.8 -- -- 86
2020-03-25 17:00:00 9 10 Este 30 Oeste 0 -- -- 76
2020-03-25 16:00:00 11.9 19 Oeste 32 Oeste 0 -- -- 63
2020-03-25 15:00:00 11.3 17 Oeste 29 Oeste 0 -- -- 68
2020-03-25 14:00:00 9.8 12 Oeste 25 Sudoeste 0 -- -- 75
2020-03-25 13:00:00 9 8 Sudoeste 19 Sudoeste 0 -- -- 81
2020-03-25 12:00:00 6.6 4 Sur 9 Sudeste 0 -- -- 82
2020-03-25 11:00:00 5.8 3 Sudeste 10 Este 0 -- -- 87
2020-03-25 10:00:00 5.3 3 Este 15 Este 0 -- -- 93
2020-03-25 09:00:00 4.7 9 Este 16 Sudeste 0 -- -- 93
2020-03-25 08:00:00 3.4 0 Calma 8 Norte 0 -- -- 95
2020-03-25 07:00:00 2.9 3 Nordeste 5 Nordeste 0 -- -- 94
2020-03-25 06:00:00 3.7 3 Nordeste 8 Nordeste 0 -- -- 93
2020-03-25 05:00:00 4.2 4 Este 9 Este 0 -- -- 93
2020-03-25 04:00:00 4.3 2 Nordeste 6 Nordeste 0 -- -- 95
2020-03-25 03:00:00 4.2 3 Nordeste 8 Nordeste 0 -- -- 95
2020-03-25 02:00:00 3.7 3 Nordeste 12 Nordeste 0 -- -- 94
2020-03-25 01:00:00 4.6 2 Este 10 Nordeste 0 -- -- 93
2020-03-25 00:00:00 5.2 4 Este 19 Este 0 -- -- 94
2020-03-24 23:00:00 5.2 4 Este 21 Este 0 -- -- 93
2020-03-24 22:00:00 5.8 10 Este 26 Este 0 -- -- 90
2020-03-24 21:00:00 6.3 9 Este 22 Nordeste 0 -- -- 89
2020-03-24 20:00:00 6.8 7 Este 29 Este 0 -- -- 85
2020-03-24 19:00:00 7.6 11 Este 32 Este 0 -- -- 85
2020-03-24 18:00:00 7.9 10 Este 33 Este 0 -- -- 85
2020-03-24 17:00:00 8.6 14 Este 47 Nordeste 0 -- -- 83
2020-03-24 16:00:00 9.4 13 Este 38 Nordeste 0 -- -- 82
2020-03-24 15:00:00 8.8 20 Este 49 Este 0 -- -- 82
2020-03-24 14:00:00 9.2 18 Este 49 Este 0 -- -- 82
2020-03-24 13:00:00 9.9 23 Este 55 Este 0 -- -- 82
2020-03-24 12:00:00 8.4 14 Este 53 Este 0 -- -- 88
2020-03-24 11:00:00 8.6 12 Este 39 Este 0 -- -- 88
2020-03-24 10:00:00 7.8 14 Este 37 Este 0.2 -- -- 92
2020-03-24 09:00:00 -- -- -- -- -- -- -- -- --
2020-03-24 08:00:00 7.7 11 Este 36 Este 0 -- -- 92
2020-03-24 07:00:00 7.6 11 Este 35 Este 0 -- -- 93
2020-03-24 06:00:00 7.6 12 Este 34 Nordeste 0 -- -- 92
2020-03-24 05:00:00 7.6 10 Este 32 Nordeste 0 -- -- 94
2020-03-24 04:00:00 7.7 9 Este 27 Este 0.4 -- -- 95
2020-03-24 03:00:00 8 10 Este 27 Este 0 -- -- 93
2020-03-24 02:00:00 8 12 Este 30 Este 0 -- -- 92
2020-03-24 01:00:00 7.8 9 Este 26 Este 0 -- -- 93
2020-03-24 00:00:00 7.8 9 Este 25 Este 0 -- -- 93
2020-03-23 23:00:00 8 9 Este 28 Nordeste 0 -- -- 93
2020-03-23 22:00:00 8.3 8 Este 28 Este 0 -- -- 91
2020-03-23 21:00:00 8.4 9 Este 25 Este 0 -- -- 91
2020-03-23 20:00:00 8.3 9 Este 26 Nordeste 0 -- -- 92
2020-03-23 19:00:00 8.7 12 Este 31 Este 0 -- -- 90
2020-03-23 18:00:00 9.3 11 Este 31 Nordeste 0 -- -- 87
2020-03-23 17:00:00 9.4 8 Este 25 Este 0 -- -- 89
2020-03-23 16:00:00 10.3 9 Este 27 Este 0.6 -- -- 90
2020-03-23 15:00:00 9.6 9 Este 21 Este 0.8 -- -- 92
2020-03-23 14:00:00 8.8 9 Este 46 Sudeste 5 -- -- 96
2020-03-23 13:00:00 10.3 15 Este 32 Este 0 -- -- 84
2020-03-23 12:00:00 11.6 15 Este 30 Sudeste 0 -- -- 85
2020-03-23 11:00:00 9.9 13 Este 30 Este 0 -- -- 94
2020-03-23 10:00:00 8.7 11 Este 26 Este 0.4 -- -- 97
2020-03-23 09:00:00 7.5 5 Este 23 Nordeste 0 -- -- 98
2020-03-23 08:00:00 7 6 Este 18 Nordeste 0 -- -- 99
2020-03-23 07:00:00 6.7 9 Este 20 Nordeste 0.2 -- -- 99
2020-03-23 06:00:00 6.6 4 Este 19 Nordeste 0 -- -- 99
2020-03-23 05:00:00 6.8 6 Este 15 Sudeste 1.2 -- -- 99
2020-03-23 04:00:00 6.8 5 Este 15 Este 0.2 -- -- 99
2020-03-23 03:00:00 6.7 4 Este 13 Sudeste 0.2 -- -- 99
2020-03-23 02:00:00 6.7 5 Este 10 Sudeste 0.6 -- -- 99
2020-03-23 01:00:00 6.6 6 Este 13 Sudeste 0.4 -- -- 98
2020-03-23 00:00:00 6.7 8 Este 19 Este 0.2 -- -- 98
2020-03-22 23:00:00 6.9 10 Este 24 Este 0 -- -- 97
2020-03-22 22:00:00 7.3 10 Este 26 Este 0 -- -- 98
2020-03-22 21:00:00 7.5 10 Sudeste 29 Este 0 -- -- 97
2020-03-22 20:00:00 7.4 12 Este 27 Este 0 -- -- 97
2020-03-22 19:00:00 7.8 11 Este 26 Este 0.2 -- -- 96
2020-03-22 18:00:00 8.1 13 Este 27 Este 0.8 -- -- 96
2020-03-22 17:00:00 8.1 14 Sudeste 28 Este 2.2 -- -- 94
2020-03-22 16:00:00 9.4 14 Sudeste 27 Sudeste 0 -- -- 86
2020-03-22 15:00:00 10.8 12 Este 24 Este 0 -- -- 81
2020-03-22 14:00:00 10.4 14 Sudeste 27 Este 0 -- -- 85
2020-03-22 13:00:00 10.1 12 Sudeste 24 Este 0 -- -- 92
2020-03-22 12:00:00 9.2 8 Este 19 Este 0.2 -- -- 93
2020-03-22 11:00:00 8.8 6 Este 15 Nordeste 0 -- -- 100
2020-03-22 10:00:00 6.5 0 Calma 7 Nordeste 0 -- -- 100
2020-03-22 09:00:00 5.2 3 Sudoeste 8 Sur 0 -- -- 100
2020-03-22 08:00:00 2.8 0 Calma 8 Este 0 -- -- 100
2020-03-22 07:00:00 2.8 4 Nordeste 9 Nordeste 0 -- -- 100
2020-03-22 06:00:00 2 5 Nordeste 8 Nordeste 0 -- -- 99
2020-03-22 05:00:00 1.4 0 Calma 4 Oeste 0 -- -- 99
2020-03-22 04:00:00 2 0 Calma 3 Nordeste 0 -- -- 98
2020-03-22 03:00:00 1.9 0 Calma 5 Nordeste 0 -- -- 96
2020-03-22 02:00:00 4 3 Norte 9 Este 0 -- -- 97
2020-03-22 01:00:00 4.8 4 Nordeste 15 Nordeste 0 -- -- 97
2020-03-22 00:00:00 4.8 5 Nordeste 10 Este 0.2 -- -- 97
2020-03-21 23:00:00 5.2 9 Nordeste 17 Nordeste 0 -- -- 96
2020-03-21 22:00:00 5.6 6 Nordeste 15 Nordeste 1.4 -- -- 97
2020-03-21 21:00:00 5.7 3 Este 6 Este 2 -- -- 96
2020-03-21 20:00:00 5.9 0 Calma 5 Oeste 1.6 -- -- 94
2020-03-21 19:00:00 6.2 3 Noroeste 11 Noroeste 0.2 -- -- 95
2020-03-21 18:00:00 6.3 6 Noroeste 15 Noroeste 0.2 -- -- 96
2020-03-21 17:00:00 6.4 6 Noroeste 13 Noroeste 0.4 -- -- 97
2020-03-21 16:00:00 6.5 6 Oeste 14 Oeste 0 -- -- 96
2020-03-21 15:00:00 6.6 8 Oeste 18 Oeste 0 -- -- 94
2020-03-21 14:00:00 7 10 Noroeste 25 Sudoeste 0.4 -- -- 91
2020-03-21 13:00:00 9.4 9 Sudeste 21 Este 0 -- -- 87
2020-03-21 12:00:00 9.4 9 Sudeste 23 Este 0 -- -- 88
2020-03-21 11:00:00 9.2 12 Este 26 Este 0 -- -- 89
2020-03-21 10:00:00 7.2 9 Este 23 Este 0 -- -- 92
2020-03-21 09:00:00 6.6 9 Este 23 Este 0 -- -- 93
2020-03-21 08:00:00 6.3 8 Este 21 Sudeste 0 -- -- 94
2020-03-21 07:00:00 6.4 8 Este 24 Este 0 -- -- 95
2020-03-21 06:00:00 6.6 6 Este 21 Este 0 -- -- 97
2020-03-21 05:00:00 6.5 7 Este 20 Nordeste 0 -- -- 97
2020-03-21 04:00:00 6.4 7 Este 21 Nordeste 0 -- -- 97
2020-03-21 03:00:00 6.2 5 Este 21 Nordeste 0 -- -- 97
2020-03-21 02:00:00 6.3 6 Este 23 Sudeste 0 -- -- 98
2020-03-21 01:00:00 6.3 9 Este 25 Este 0 -- -- 97
2020-03-21 00:00:00 6.2 8 Este 22 Sudeste 0 -- -- 97
2020-03-20 23:00:00 6.1 11 Sudeste 23 Este 0 -- -- 96
2020-03-20 22:00:00 5.8 5 Sudeste 9 Sudeste 0 -- -- 96
2020-03-20 21:00:00 5.8 2 Sudeste 9 Este 0 -- -- 93
2020-03-20 20:00:00 7.3 3 Este 19 Este 0 -- -- 92
2020-03-20 19:00:00 8.1 10 Sudeste 23 Este 0 -- -- 93
2020-03-20 18:00:00 8.4 13 Este 26 Este 0 -- -- 92
2020-03-20 17:00:00 8.7 11 Este 27 Este 0 -- -- 91
2020-03-20 16:00:00 8.6 15 Sudeste 27 Sudeste 0 -- -- 93
2020-03-20 15:00:00 8.6 14 Sudeste 28 Este 0 -- -- 90
2020-03-20 14:00:00 8.9 14 Este 31 Este 0 -- -- 89
2020-03-20 13:00:00 9.1 15 Este 30 Este 0 -- -- 86
2020-03-20 12:00:00 9.7 15 Este 29 Este 0 -- -- 90
2020-03-20 11:00:00 8.4 13 Sudeste 30 Este 0 -- -- 91
2020-03-20 10:00:00 8.2 12 Este 30 Este 0 -- -- 91
2020-03-20 09:00:00 7.2 11 Este 22 Sudeste 0 -- -- 96
2020-03-20 08:00:00 6.8 7 Este 20 Este 0 -- -- 97
2020-03-20 07:00:00 6.7 6 Este 21 Este 0 -- -- 96
2020-03-20 06:00:00 6.8 7 Este 22 Este 0 -- -- 96
2020-03-20 05:00:00 6.6 4 Este 17 Sudeste 0 -- -- 96
2020-03-20 04:00:00 6.3 5 Este 23 Este 0 -- -- 95
2020-03-20 03:00:00 7.1 7 Este 24 Este 0 -- -- 94
2020-03-20 02:00:00 7.4 8 Este 22 Sudeste 0 -- -- 93
2020-03-20 01:00:00 7.5 12 Sudeste 25 Este 0 -- -- 94
2020-03-20 00:00:00 7.6 11 Este 24 Este 0 -- -- 93
2020-03-19 23:00:00 7.8 15 Este 27 Este 0 -- -- 93
2020-03-19 22:00:00 8 12 Este 27 Este 0 -- -- 93
2020-03-19 21:00:00 8.3 13 Sudeste 30 Este 0 -- -- 94
2020-03-19 20:00:00 8.8 11 Este 25 Nordeste 0 -- -- 91
2020-03-19 19:00:00 9.1 11 Este 28 Sudeste 0 -- -- 89
2020-03-19 18:00:00 9.6 12 Este 28 Sudeste 0 -- -- 87
2020-03-19 17:00:00 10.4 12 Este 31 Este 0 -- -- 82
2020-03-19 16:00:00 12.4 12 Este 31 Este 0 -- -- 74
2020-03-19 15:00:00 12.4 17 Sudeste 30 Sudeste 0 -- -- 71
2020-03-19 14:00:00 11.9 11 Este 28 Sudeste 0 -- -- 75
2020-03-19 13:00:00 11.5 15 Este 33 Sudeste 0 -- -- 73
2020-03-19 12:00:00 11.4 17 Sudeste 28 Sudeste 0 -- -- 74
2020-03-19 11:00:00 10.6 15 Sudeste 26 Este 0 -- -- 78
2020-03-19 10:00:00 9.1 12 Este 24 Sudeste 0 -- -- 88
2020-03-19 09:00:00 7.4 7 Este 18 Este 0 -- -- 94
2020-03-19 08:00:00 5.6 0 Calma 14 Este 0 -- -- 96
2020-03-19 07:00:00 5.4 5 Este 13 Este 0 -- -- 96
2020-03-19 06:00:00 5.2 4 Este 9 Nordeste 0 -- -- 96
2020-03-19 05:00:00 5.1 3 Este 14 Este 0 -- -- 94
2020-03-19 04:00:00 5.8 6 Este 21 Este 0 -- -- 94
2020-03-19 03:00:00 6.6 9 Este 20 Este 0 -- -- 94
2020-03-19 02:00:00 7.1 4 Este 23 Sudeste 0 -- -- 93
2020-03-19 01:00:00 7.4 10 Este 23 Este 0 -- -- 93
2020-03-19 00:00:00 7.7 9 Este 24 Este 0 -- -- 93
2020-03-18 23:00:00 8 8 Sudeste 21 Sudeste 0 -- -- 94
2020-03-18 22:00:00 8.2 9 Sudeste 19 Sudeste 0 -- -- 92
2020-03-18 21:00:00 9.1 4 Este 15 Este 0 -- -- 83
2020-03-18 20:00:00 10.1 7 Sudeste 18 Este 0 -- -- 76
2020-03-18 19:00:00 11.7 8 Este 24 Este 0 -- -- 63
2020-03-18 18:00:00 13.6 11 Este 26 Este 0 -- -- 63
2020-03-18 17:00:00 14.2 14 Este 32 Este 0 -- -- 66
2020-03-18 16:00:00 13.9 17 Este 31 Este 0 -- -- 67
2020-03-18 15:00:00 13.8 17 Sudeste 31 Sudeste 0 -- -- 63
2020-03-18 14:00:00 13.2 19 Sudeste 34 Sudeste 0 -- -- 63
2020-03-18 13:00:00 13.9 15 Este 35 Este 0 -- -- 68
2020-03-18 12:00:00 12.1 15 Este 30 Este 0 -- -- 73
2020-03-18 11:00:00 10.8 7 Este 19 Este 0 -- -- 85
2020-03-18 10:00:00 8.9 6 Este 16 Este 0 -- -- 89
2020-03-18 09:00:00 7.4 5 Este 10 Sudeste 0 -- -- 93
2020-03-18 08:00:00 6.8 3 Norte 14 Este 0 -- -- 92
2020-03-18 07:00:00 6.6 3 Este 11 Este 0 -- -- 92
2020-03-18 06:00:00 6.7 3 Este 12 Sudeste 0 -- -- 91
2020-03-18 05:00:00 7.2 6 Este 17 Nordeste 0 -- -- 88
2020-03-18 04:00:00 7.4 4 Este 22 Este 0 -- -- 87
2020-03-18 03:00:00 7.6 8 Este 27 Nordeste 0 -- -- 86
2020-03-18 02:00:00 7.8 9 Nordeste 19 Este 0 -- -- 87
2020-03-18 01:00:00 7.8 7 Este 22 Este 0 -- -- 89
2020-03-18 00:00:00 8.2 8 Este 32 Este 0 -- -- 89
2020-03-17 23:00:00 8.6 13 Este 28 Este 0 -- -- 90
2020-03-17 22:00:00 8.9 10 Este 32 Este 0 -- -- 90
2020-03-17 21:00:00 9.2 9 Este 24 Nordeste 0 -- -- 92
2020-03-17 20:00:00 9.7 9 Este 37 Sudeste 0 -- -- 90
2020-03-17 19:00:00 10.4 12 Este 31 Este 0 -- -- 91
2020-03-17 18:00:00 10.7 13 Este 32 Nordeste 0 -- -- 95
2020-03-17 17:00:00 10.7 8 Este 19 Nordeste 0 -- -- 96
2020-03-17 16:00:00 9.9 4 Norte 12 Nordeste 1 -- -- 96
2020-03-17 15:00:00 10 8 Este 20 Nordeste 3 -- -- 96
2020-03-17 14:00:00 9.8 9 Nordeste 22 Nordeste 2.8 -- -- 96
2020-03-17 13:00:00 9.8 6 Este 26 Este 0.8 -- -- 94
2020-03-17 12:00:00 10.6 13 Este 31 Sudeste 0 -- -- 88
2020-03-17 11:00:00 9.3 11 Sudeste 26 Sudeste 0 -- -- 94
2020-03-17 10:00:00 8.4 8 Este 20 Este 0 -- -- 98
2020-03-17 09:00:00 7.3 6 Este 19 Sudeste 0 -- -- 98
2020-03-17 08:00:00 6.9 11 Sudeste 21 Este 0 -- -- 97
2020-03-17 07:00:00 7.1 8 Sudeste 19 Sudeste 0 -- -- 98
2020-03-17 06:00:00 6.7 9 Este 23 Este 0.2 -- -- 98
2020-03-17 05:00:00 6.8 13 Sudeste 23 Sudeste 0 -- -- 98
2020-03-17 04:00:00 6.5 9 Este 22 Este 0 -- -- 98
2020-03-17 03:00:00 6.2 6 Este 19 Este 0 -- -- 97
2020-03-17 02:00:00 5.2 6 Este 21 Este 0 -- -- 95
2020-03-17 01:00:00 4.5 8 Este 15 Nordeste 0 -- -- 92
2020-03-17 00:00:00 4 7 Nordeste 21 Nordeste 0 -- -- 92
2020-03-16 23:00:00 3.2 8 Nordeste 22 Nordeste 0 -- -- 93
2020-03-16 22:00:00 3.5 10 Nordeste 21 Nordeste 0 -- -- 88
2020-03-16 21:00:00 4.3 5 Este 19 Este 0 -- -- 87
2020-03-16 20:00:00 4.6 5 Nordeste 16 Nordeste 0 -- -- 85
2020-03-16 19:00:00 4.9 8 Nordeste 22 Nordeste 0 -- -- 82
2020-03-16 18:00:00 6 12 Nordeste 23 Nordeste 0 -- -- 77
2020-03-16 17:00:00 5.1 14 Nordeste 28 Nordeste 0 -- -- 83
2020-03-16 16:00:00 5.2 10 Nordeste 22 Nordeste 0 -- -- 87
2020-03-16 15:00:00 4 10 Nordeste 23 Nordeste 0 -- -- 92
2020-03-16 14:00:00 3.7 4 Noroeste 19 Noroeste 0 -- -- 88
2020-03-16 13:00:00 3.9 0 Calma 9 Sudoeste 0 -- -- 89
2020-03-16 12:00:00 3.6 7 Sudoeste 13 Sudoeste 0 -- -- 94
2020-03-16 11:00:00 2.6 4 Sudeste 12 Sur 0.8 -- -- 97
2020-03-16 10:00:00 2.1 4 Sur 10 Oeste 1.4 -- -- 97
2020-03-16 09:00:00 2.3 5 Oeste 34 Sudoeste 5.6 -- -- 96
2020-03-16 08:00:00 3.7 22 Oeste 35 Oeste 3.8 -- -- 94
2020-03-16 07:00:00 7.1 17 Oeste 29 Oeste 6.6 -- -- 97
2020-03-16 06:00:00 8.7 14 Sudeste 31 Sudeste 1.4 -- -- 98
2020-03-16 05:00:00 9.1 16 Sudeste 30 Sudeste 0.2 -- -- 97
2020-03-16 04:00:00 9.2 13 Sudeste 23 Este 0.2 -- -- 98
2020-03-16 03:00:00 9.2 12 Sudeste 24 Este 0 -- -- 97
2020-03-16 02:00:00 9.1 11 Sudeste 22 Este 0 -- -- 96
2020-03-16 01:00:00 9.1 0 Calma 21 Este 0.2 -- -- 96
2020-03-16 00:00:00 8.8 12 Sudeste 31 Sudeste 0.2 -- -- 95
2020-03-15 23:00:00 9.1 8 Este 23 Este 0 -- -- 92
2020-03-15 22:00:00 9.1 4 Nordeste 20 Nordeste 0 -- -- 94
2020-03-15 21:00:00 9.1 9 Este 23 Este 3.8 -- -- 94
2020-03-15 20:00:00 9.1 10 Nordeste 32 Norte 7.6 -- -- 90
2020-03-15 19:00:00 10.2 17 Noroeste 46 Noroeste 3.8 -- -- 82
2020-03-15 18:00:00 16.3 9 Sudeste 23 Sudeste 0 -- -- 55
2020-03-15 17:00:00 16.7 14 Sur 30 Sur 0 -- -- 56
2020-03-15 16:00:00 18.2 10 Sur 23 Sudeste 0 -- -- 54
2020-03-15 15:00:00 17.8 14 Sur 22 Sudeste 0 -- -- 58
2020-03-15 14:00:00 16.3 12 Sur 23 Sudeste 0 -- -- 63
2020-03-15 13:00:00 14.4 11 Sur 26 Sudeste 0 -- -- 69
2020-03-15 12:00:00 13.5 13 Sur 25 Sudeste 0 -- -- 68
2020-03-15 11:00:00 12.4 11 Sudeste 22 Sudeste 0 -- -- 72
2020-03-15 10:00:00 10.9 9 Sudeste 16 Sudeste 0 -- -- 78
2020-03-15 09:00:00 9 5 Sudeste 10 Sudeste 0 -- -- 86
2020-03-15 08:00:00 7 3 Este 9 Nordeste 0 -- -- 89
2020-03-15 07:00:00 6.9 4 Nordeste 9 Nordeste 0 -- -- 87
2020-03-15 06:00:00 7.5 4 Nordeste 13 Nordeste 0 -- -- 87
2020-03-15 05:00:00 8.2 3 Nordeste 10 Nordeste 0 -- -- 85
2020-03-15 04:00:00 8.5 4 Nordeste 13 Nordeste 0 -- -- 85
2020-03-15 03:00:00 8.6 9 Nordeste 15 Este 0 -- -- 84
2020-03-15 02:00:00 8.3 5 Este 13 Este 0 -- -- 85
2020-03-15 01:00:00 9.1 5 Este 18 Sudeste 0 -- -- 86
2020-03-15 00:00:00 10 8 Este 20 Sudeste 0 -- -- 83
2020-03-14 23:00:00 10.9 8 Este 21 Este 0 -- -- 83
2020-03-14 22:00:00 12.1 8 Este 26 Sudeste 0 -- -- 79
2020-03-14 21:00:00 13.8 13 Sudeste 26 Este 0 -- -- 71
2020-03-14 20:00:00 15 0 Calma 4 Sur 0 -- -- 57
2020-03-14 19:00:00 17.1 4 Sur 14 Sudeste 0 -- -- 54
2020-03-14 18:00:00 19.6 5 Sudoeste 13 Sur 0 -- -- 49
2020-03-14 17:00:00 19.6 6 Sudoeste 22 Sudoeste 0 -- -- 47
2020-03-14 16:00:00 19.8 8 Sur 22 Sur 0 -- -- 48
2020-03-14 15:00:00 19.1 10 Sudeste 22 Sur 0 -- -- 51
2020-03-14 14:00:00 18.5 12 Sudeste 20 Sur 0 -- -- 53
2020-03-14 13:00:00 17.6 12 Sur 23 Sudeste 0 -- -- 57
2020-03-14 12:00:00 16.3 6 Sur 15 Sur 0 -- -- 60
2020-03-14 11:00:00 14.3 3 Sudeste 6 Este 0 -- -- 65
2020-03-14 10:00:00 12.2 3 Sudeste 12 Este 0 -- -- 74
2020-03-14 09:00:00 8.7 6 Norte 14 Norte 0 -- -- 87
2020-03-14 08:00:00 5.1 0 Calma 9 Nordeste 0 -- -- 92
2020-03-14 07:00:00 5.3 3 Nordeste 9 Norte 0 -- -- 91
2020-03-14 06:00:00 5.4 0 Calma 9 Norte 0 -- -- 90
2020-03-14 05:00:00 7 3 Nordeste 13 Nordeste 0 -- -- 89
2020-03-14 04:00:00 7.7 5 Nordeste 13 Nordeste 0 -- -- 88
2020-03-14 03:00:00 7.9 9 Nordeste 15 Este 0 -- -- 88
2020-03-14 02:00:00 7.8 6 Este 13 Nordeste 0 -- -- 90
2020-03-14 01:00:00 8 6 Nordeste 12 Nordeste 0 -- -- 91
2020-03-14 00:00:00 8.1 3 Este 14 Este 0 -- -- 90
2020-03-13 23:00:00 8.8 5 Este 16 Este 0 -- -- 87
2020-03-13 22:00:00 9.7 5 Este 15 Este 0 -- -- 84
2020-03-13 21:00:00 10.7 4 Este 17 Este 0 -- -- 79
2020-03-13 20:00:00 12.3 4 Este 15 Este 0 -- -- 71
2020-03-13 19:00:00 14.5 6 Este 22 Este 0 -- -- 64
2020-03-13 18:00:00 17 11 Este 27 Sudeste 0 -- -- 56
2020-03-13 17:00:00 18.7 13 Este 27 Este 0 -- -- 52
2020-03-13 16:00:00 19 12 Sudeste 34 Este 0 -- -- 50
2020-03-13 15:00:00 18.5 18 Sudeste 30 Este 0 -- -- 50
2020-03-13 14:00:00 18.2 14 Este 34 Sudeste 0 -- -- 53
2020-03-13 13:00:00 17.3 10 Este 31 Este 0 -- -- 55
2020-03-13 12:00:00 16.3 16 Este 29 Este 0 -- -- 56
2020-03-13 11:00:00 14.8 11 Este 22 Sudeste 0 -- -- 64
2020-03-13 10:00:00 10.8 6 Este 17 Sudeste 0 -- -- 81
2020-03-13 09:00:00 10.3 3 Este 19 Este 0 -- -- 83
2020-03-13 08:00:00 8.2 3 Norte 6 Noroeste 0 -- -- 88
2020-03-13 07:00:00 6.5 0 Calma 6 Nordeste 0 -- -- 87
2020-03-13 06:00:00 7.4 0 Calma 6 Este 0 -- -- 85
2020-03-13 05:00:00 8 4 Nordeste 6 Nordeste 0 -- -- 83
2020-03-13 04:00:00 8.4 0 Calma 8 Nordeste 0 -- -- 80
2020-03-13 03:00:00 9.8 5 Nordeste 9 Nordeste 0 -- -- 76
2020-03-13 02:00:00 11 3 Norte 12 Nordeste 0 -- -- 70
2020-03-13 01:00:00 10.9 7 Nordeste 11 Nordeste 0 -- -- 69
2020-03-13 00:00:00 11.4 5 Nordeste 8 Nordeste 0 -- -- 66
2020-03-12 23:00:00 13 3 Nordeste 10 Nordeste 0 -- -- 62
2020-03-12 22:00:00 13.7 6 Nordeste 9 Nordeste 0 -- -- 59
2020-03-12 21:00:00 15.2 0 Calma 4 Norte 0 -- -- 55
2020-03-12 20:00:00 17.2 2 Sur 7 Sudeste 0 -- -- 49
2020-03-12 19:00:00 20.1 7 Sur 17 Sudeste 0 -- -- 44
2020-03-12 18:00:00 22.8 13 Sur 18 Sur 0 -- -- 37
2020-03-12 17:00:00 24.3 9 Sur 22 Sur 0 -- -- 38
2020-03-12 16:00:00 24.9 12 Sur 20 Sur 0 -- -- 33
2020-03-12 15:00:00 24.8 13 Sur 23 Sur 0 -- -- 32
2020-03-12 14:00:00 24.6 11 Sur 24 Sudoeste 0 -- -- 36
2020-03-12 13:00:00 23.4 10 Sur 17 Sur 0 -- -- 40
2020-03-12 12:00:00 22.6 2 Sudeste 11 Sudeste 0 -- -- 43
2020-03-12 11:00:00 19.8 3 Sur 7 Sudoeste 0 -- -- 51
2020-03-12 10:00:00 15.8 3 Este 11 Este 0 -- -- 63
2020-03-12 09:00:00 11.1 5 Nordeste 9 Nordeste 0 -- -- 69
2020-03-12 08:00:00 8.1 0 Calma 10 Este 0 -- -- 77
2020-03-12 07:00:00 7.1 3 Nordeste 8 Nordeste 0 -- -- 80
2020-03-12 06:00:00 7.5 7 Nordeste 9 Nordeste 0 -- -- 78
2020-03-12 05:00:00 7.8 4 Nordeste 9 Norte 0 -- -- 79
2020-03-12 04:00:00 8.9 5 Norte 12 Este 0 -- -- 75
2020-03-12 03:00:00 8 6 Nordeste 9 Este 0 -- -- 74
2020-03-12 02:00:00 9.5 6 Nordeste 10 Nordeste 0 -- -- 68
2020-03-12 01:00:00 9.2 0 Calma 20 Sur 0 -- -- 69
2020-03-12 00:00:00 10.5 3 Nordeste 6 Norte 0 -- -- 65
2020-03-11 23:00:00 11.4 0 Calma 9 Nordeste 0 -- -- 61
2020-03-11 22:00:00 14.2 4 Nordeste 9 Este 0 -- -- 53
2020-03-11 21:00:00 16 5 Nordeste 10 Norte 0 -- -- 49
2020-03-11 20:00:00 17.4 0 Calma 11 Norte 0 -- -- 47
2020-03-11 19:00:00 21.6 5 Oeste 18 Oeste 0 -- -- 37
2020-03-11 18:00:00 24.3 11 Oeste 23 Oeste 0 -- -- 33
2020-03-11 17:00:00 25.9 12 Oeste 26 Oeste 0 -- -- 30
2020-03-11 16:00:00 25.5 13 Oeste 25 Oeste 0 -- -- 32
2020-03-11 15:00:00 25.1 14 Oeste 26 Sudoeste 0 -- -- 34
2020-03-11 14:00:00 24.6 12 Noroeste 23 Noroeste 0 -- -- 35
2020-03-11 13:00:00 23.3 14 Oeste 24 Noroeste 0 -- -- 40
2020-03-11 12:00:00 21.5 12 Oeste 18 Oeste 0 -- -- 42
2020-03-11 11:00:00 19.6 8 Oeste 13 Oeste 0 -- -- 53
2020-03-11 10:00:00 16.6 0 Calma 6 Oeste 0 -- -- 64
2020-03-11 09:00:00 11 0 Calma 4 Nordeste 0 -- -- 73
2020-03-11 08:00:00 6.2 0 Calma 7 Nordeste 0 -- -- 80
2020-03-11 07:00:00 6.1 2 Nordeste 7 Nordeste 0 -- -- 81
2020-03-11 06:00:00 4.7 0 Calma 6 Norte 0 -- -- 84
2020-03-11 05:00:00 5.1 0 Calma 6 Noroeste 0 -- -- 84
2020-03-11 04:00:00 5.9 2 Nordeste 4 Este 0 -- -- 80
2020-03-11 03:00:00 7.5 0 Calma 6 Este 0 -- -- 73
2020-03-11 02:00:00 7.8 2 Norte 9 Nordeste 0 -- -- 73
2020-03-11 01:00:00 8.4 5 Nordeste 8 Norte 0 -- -- 72
2020-03-11 00:00:00 8.9 0 Calma 9 Nordeste 0 -- -- 69
2020-03-10 23:00:00 12.1 5 Nordeste 10 Norte 0 -- -- 59
2020-03-10 22:00:00 12.3 4 Norte 6 Norte 0 -- -- 59
2020-03-10 21:00:00 14.6 2 Norte 9 Noroeste 0 -- -- 53
2020-03-10 20:00:00 16.3 5 Noroeste 17 Noroeste 0 -- -- 48
2020-03-10 19:00:00 18.7 10 Noroeste 20 Noroeste 0 -- -- 41
2020-03-10 18:00:00 20.1 8 Oeste 24 Oeste 0 -- -- 40
2020-03-10 17:00:00 22.3 15 Oeste 28 Oeste 0 -- -- 35
2020-03-10 16:00:00 22.2 14 Noroeste 27 Oeste 0 -- -- 36
2020-03-10 15:00:00 21.6 16 Noroeste 31 Oeste 0 -- -- 36
2020-03-10 14:00:00 20.2 15 Oeste 24 Oeste 0 -- -- 37
2020-03-10 13:00:00 19.4 12 Noroeste 27 Noroeste 0 -- -- 35
2020-03-10 12:00:00 17.3 14 Noroeste 29 Norte 0 -- -- 37
2020-03-10 11:00:00 14.8 18 Noroeste 31 Noroeste 0 -- -- 42
2020-03-10 10:00:00 11.3 6 Norte 17 Norte 0 -- -- 52
2020-03-10 09:00:00 7.5 7 Norte 13 Noroeste 0 -- -- 62
2020-03-10 08:00:00 4.1 4 Oeste 8 Noroeste 0 -- -- 73
2020-03-10 07:00:00 7.1 3 Norte 15 Norte 0 -- -- 60
2020-03-10 06:00:00 6.7 6 Norte 27 Norte 0 -- -- 63
2020-03-10 05:00:00 7.1 15 Norte 28 Noroeste 0 -- -- 61
2020-03-10 04:00:00 6.5 10 Noroeste 21 Noroeste 0 -- -- 63
2020-03-10 03:00:00 6.8 12 Noroeste 22 Noroeste 0 -- -- 62
2020-03-10 02:00:00 6.9 9 Noroeste 16 Oeste 0 -- -- 61
2020-03-10 01:00:00 7.4 6 Noroeste 15 Noroeste 0 -- -- 58
2020-03-10 00:00:00 8.5 8 Noroeste 20 Noroeste 0 -- -- 53
2020-03-09 23:00:00 8.9 9 Noroeste 20 Noroeste 0 -- -- 52
2020-03-09 22:00:00 9.6 3 Noroeste 15 Noroeste 0 -- -- 48
2020-03-09 21:00:00 10.9 10 Noroeste 21 Noroeste 0 -- -- 43
2020-03-09 20:00:00 11.6 8 Noroeste 15 Noroeste 0 -- -- 42
2020-03-09 19:00:00 13.5 12 Noroeste 32 Noroeste 0 -- -- 39
2020-03-09 18:00:00 15 16 Noroeste 36 Noroeste 0 -- -- 37
2020-03-09 17:00:00 15.8 23 Noroeste 44 Noroeste 0 -- -- 32
2020-03-09 16:00:00 16.1 20 Noroeste 40 Noroeste 0 -- -- 32
2020-03-09 15:00:00 15.6 21 Noroeste 39 Noroeste 0 -- -- 33
2020-03-09 14:00:00 14.9 19 Noroeste 40 Noroeste 0 -- -- 37
2020-03-09 13:00:00 13.7 21 Noroeste 38 Noroeste 0 -- -- 42
2020-03-09 12:00:00 12.4 21 Noroeste 36 Noroeste 0 -- -- 49
2020-03-09 11:00:00 10.8 17 Norte 31 Noroeste 0 -- -- 55
2020-03-09 10:00:00 8.4 10 Noroeste 24 Norte 0 -- -- 73
2020-03-09 09:00:00 4.2 4 Sudoeste 8 Oeste 0 -- -- 96
2020-03-09 08:00:00 1.9 5 Oeste 9 Oeste 0 -- -- 94
2020-03-09 07:00:00 2 0 Calma 8 Oeste 0 -- -- 92
2020-03-09 06:00:00 3.6 4 Oeste 16 Noroeste 0 -- -- 91
2020-03-09 05:00:00 4 7 Oeste 13 Oeste 0 -- -- 90
2020-03-09 04:00:00 4.4 6 Noroeste 15 Noroeste 0 -- -- 87
2020-03-09 03:00:00 4.8 3 Noroeste 9 Oeste 0 -- -- 81
2020-03-09 02:00:00 6.1 4 Noroeste 15 Noroeste 0 -- -- 75
2020-03-09 01:00:00 7.3 7 Oeste 18 Noroeste 0 -- -- 71
2020-03-09 00:00:00 9.1 9 Noroeste 22 Noroeste 0 -- -- 63
2020-03-08 23:00:00 9.7 5 Noroeste 23 Noroeste 0 -- -- 59
2020-03-08 22:00:00 10.8 9 Noroeste 17 Noroeste 0 -- -- 55
2020-03-08 21:00:00 11.4 6 Noroeste 16 Noroeste 0 -- -- 48
2020-03-08 20:00:00 12.8 9 Noroeste 20 Noroeste 0 -- -- 42
2020-03-08 19:00:00 13.9 11 Noroeste 34 Oeste 0 -- -- 38
2020-03-08 18:00:00 15.5 19 Oeste 37 Oeste 0 -- -- 33
2020-03-08 17:00:00 16.1 19 Oeste 34 Oeste 0 -- -- 32
2020-03-08 16:00:00 16.4 18 Oeste 36 Noroeste 0 -- -- 35
2020-03-08 15:00:00 16.1 18 Oeste 35 Oeste 0 -- -- 38
2020-03-08 14:00:00 15.3 17 Oeste 35 Oeste 0 -- -- 42
2020-03-08 13:00:00 14.2 16 Oeste 35 Oeste 0 -- -- 52
2020-03-08 12:00:00 12.9 20 Noroeste 34 Noroeste 0 -- -- 54
2020-03-08 11:00:00 12.2 14 Oeste 30 Oeste 0 -- -- 53
2020-03-08 10:00:00 8.8 5 Sudoeste 15 Norte 0 -- -- 71
2020-03-08 09:00:00 4.9 5 Norte 17 Norte 0 -- -- 80
2020-03-08 08:00:00 1.8 8 Norte 15 Norte 0 -- -- 87
2020-03-08 07:00:00 1.9 7 Norte 13 Noroeste 0 -- -- 89
2020-03-08 06:00:00 -1.1 0 Calma 6 Este 0 -- -- 89
2020-03-08 05:00:00 0.3 0 Calma 6 Nordeste 0 -- -- 90
2020-03-08 04:00:00 0.6 3 Nordeste 6 Nordeste 0 -- -- 90
2020-03-08 03:00:00 1 0 Calma 7 Noroeste 0 -- -- 86
2020-03-08 02:00:00 2.2 0 Calma 10 Noroeste 0 -- -- 83
2020-03-08 01:00:00 4.2 7 Oeste 12 Sudoeste 0 -- -- 82
2020-03-08 00:00:00 5.4 2 Oeste 7 Noroeste 0 -- -- 75
2020-03-07 23:00:00 6.6 3 Sur 16 Noroeste 0 -- -- 71
2020-03-07 22:00:00 8.2 9 Noroeste 14 Noroeste 0 -- -- 65
2020-03-07 21:00:00 9.3 8 Noroeste 18 Noroeste 0 -- -- 60
2020-03-07 20:00:00 11.4 14 Norte 29 Noroeste 0 -- -- 52
2020-03-07 19:00:00 12.6 15 Noroeste 31 Noroeste 0 -- -- 49
2020-03-07 18:00:00 14.2 18 Norte 35 Noroeste 0 -- -- 42
2020-03-07 17:00:00 14.6 22 Noroeste 45 Norte 0 -- -- 42
2020-03-07 16:00:00 14.2 22 Noroeste 36 Noroeste 0 -- -- 45
2020-03-07 15:00:00 13.2 19 Noroeste 40 Noroeste 0 -- -- 48
2020-03-07 14:00:00 11.6 23 Noroeste 39 Noroeste 0 -- -- 50
2020-03-07 13:00:00 10.2 24 Noroeste 45 Noroeste 0 -- -- 53
2020-03-07 12:00:00 9 21 Noroeste 37 Noroeste 0 -- -- 56
2020-03-07 11:00:00 6.7 16 Oeste 29 Noroeste 0 -- -- 58
2020-03-07 10:00:00 4.8 15 Oeste 26 Noroeste 0 -- -- 63
2020-03-07 09:00:00 0.9 6 Oeste 13 Oeste 0 -- -- 86
2020-03-07 08:00:00 -1 0 Calma 8 Oeste 0 -- -- 87
2020-03-07 07:00:00 -0.7 5 Oeste 11 Noroeste 0 -- -- 86
2020-03-07 06:00:00 -0.3 5 Noroeste 12 Noroeste 0 -- -- 84
2020-03-07 05:00:00 0.6 8 Noroeste 14 Oeste 0 -- -- 80
2020-03-07 04:00:00 0.9 4 Noroeste 12 Oeste 0 -- -- 77
2020-03-07 03:00:00 -0.1 4 Sudoeste 9 Oeste 0 -- -- 76
2020-03-07 02:00:00 1.9 5 Sudoeste 20 Noroeste 0 -- -- 69
2020-03-07 01:00:00 3.7 10 Noroeste 23 Noroeste 0 -- -- 63
2020-03-07 00:00:00 3.6 8 Oeste 18 Noroeste 0 -- -- 61
2020-03-06 23:00:00 4 6 Noroeste 14 Oeste 0 -- -- 59
2020-03-06 22:00:00 4.9 5 Oeste 22 Noroeste 0 -- -- 55
2020-03-06 21:00:00 5.5 10 Noroeste 24 Noroeste 0 -- -- 52
2020-03-06 20:00:00 6.6 13 Noroeste 35 Noroeste 0 -- -- 46
2020-03-06 19:00:00 8 19 Noroeste 45 Noroeste 0 -- -- 41
2020-03-06 18:00:00 9.1 27 Noroeste 54 Noroeste 0 -- -- 39
2020-03-06 17:00:00 10.1 28 Noroeste 59 Noroeste 0 -- -- 36
2020-03-06 16:00:00 10.6 34 Noroeste 63 Noroeste 0 -- -- 36
2020-03-06 15:00:00 10.2 33 Noroeste 64 Noroeste 0 -- -- 40
2020-03-06 14:00:00 10.2 30 Noroeste 57 Noroeste 0 -- -- 43
2020-03-06 13:00:00 9.8 26 Noroeste 58 Noroeste 0 -- -- 50
2020-03-06 12:00:00 8.3 24 Noroeste 51 Oeste 0 -- -- 58
2020-03-06 11:00:00 7.6 33 Noroeste 60 Noroeste 0 -- -- 64
2020-03-06 10:00:00 6.8 23 Noroeste 52 Noroeste 0 -- -- 76
2020-03-06 09:00:00 4.3 17 Oeste 30 Oeste 0 -- -- 86
2020-03-06 08:00:00 3.1 15 Oeste 27 Oeste 0 -- -- 88
2020-03-06 07:00:00 2.7 9 Oeste 19 Oeste 0 -- -- 92
2020-03-06 06:00:00 2.2 4 Oeste 16 Oeste 0 -- -- 88
2020-03-06 05:00:00 3.6 6 Noroeste 19 Oeste 0 -- -- 84
2020-03-06 04:00:00 4.5 13 Noroeste 29 Noroeste 0 -- -- 84
2020-03-06 03:00:00 5 10 Oeste 24 Oeste 0 -- -- 84
2020-03-06 02:00:00 4.6 5 Oeste 17 Oeste 0 -- -- 88
2020-03-06 01:00:00 5.6 8 Oeste 17 Oeste 0 -- -- 84
2020-03-06 00:00:00 7.2 9 Oeste 32 Oeste 0 -- -- 78
2020-03-05 23:00:00 8.2 17 Oeste 39 Noroeste 0 -- -- 73
2020-03-05 22:00:00 9 20 Oeste 41 Noroeste 0 -- -- 69
2020-03-05 21:00:00 9.1 18 Oeste 35 Noroeste 0 -- -- 69
2020-03-05 20:00:00 9.8 15 Oeste 34 Oeste 0 -- -- 64
2020-03-05 19:00:00 11.1 17 Noroeste 36 Oeste 0 -- -- 58
2020-03-05 18:00:00 12 18 Noroeste 39 Noroeste 0 -- -- 56
2020-03-05 17:00:00 12.4 27 Noroeste 50 Oeste 0 -- -- 65
2020-03-05 16:00:00 13.9 23 Oeste 63 Oeste 0 -- -- 75
2020-03-05 15:00:00 13.2 30 Oeste 55 Oeste 0 -- -- 77
2020-03-05 14:00:00 12.4 30 Oeste 61 Oeste 0 -- -- 76
2020-03-05 13:00:00 12 30 Oeste 54 Oeste 0.2 -- -- 78
2020-03-05 12:00:00 11.5 26 Oeste 58 Oeste 0 -- -- 80
2020-03-05 11:00:00 10.8 23 Oeste 50 Oeste 0 -- -- 85
2020-03-05 10:00:00 9.8 21 Oeste 37 Oeste 0 -- -- 92
2020-03-05 09:00:00 8.5 15 Oeste 35 Oeste 0 -- -- 97
2020-03-05 08:00:00 7.7 14 Oeste 23 Oeste 0 -- -- 97
2020-03-05 07:00:00 7.6 9 Oeste 21 Oeste 0 -- -- 97
2020-03-05 06:00:00 7.6 8 Oeste 23 Oeste 0 -- -- 96
2020-03-05 05:00:00 7.9 9 Oeste 17 Oeste 0 -- -- 95
2020-03-05 04:00:00 7.9 7 Oeste 18 Oeste 0 -- -- 95
2020-03-05 03:00:00 7.7 9 Oeste 18 Noroeste 0 -- -- 94
2020-03-05 02:00:00 8.2 7 Oeste 15 Oeste 0 -- -- 91
2020-03-05 01:00:00 9 6 Oeste 18 Oeste 0 -- -- 87
2020-03-05 00:00:00 9.5 8 Oeste 22 Oeste 0 -- -- 86